Time;durP1;ratioP1;P1;durP2;ratioP2;P2;SDS_P1;SDS_P2;PMS_P1;PMS_P2;Temp;Humidity;BMP_temperature;BMP_pressure;BME280_temperature;BME280_humidity;BME280_pressure;Samples;Min_cycle;Max_cycle;Signal;HPM_P1;HPM_P2
2022/08/14 00:03:35;;;;;;;12.02;8.60;;;;;;;18.60;81.93;100993.03;5114869;28;20042;-75
2022/08/14 00:09:22;;;;;;;10.05;8.05;;;;;;;18.47;83.02;100994.31;5114882;28;20050;-75
2022/08/14 00:11:47;;;;;;;9.27;8.10;;;;;;;18.32;83.76;100990.72;5095592;28;20028;-75
2022/08/14 00:14:13;;;;;;;10.45;8.80;;;;;;;18.21;84.16;100978.97;5114344;28;20080;-75
2022/08/14 00:20:00;;;;;;;9.52;8.23;;;;;;;18.34;83.29;100983.13;5114429;28;20054;-76
2022/08/14 00:22:25;;;;;;;9.82;8.90;;;;;;;18.34;82.64;100972.31;5113189;28;20524;-76
2022/08/14 00:24:50;;;;;;;13.17;8.23;;;;;;;18.40;82.32;100980.19;5113633;28;20039;-75
2022/08/14 00:30:37;;;;;;;9.60;8.60;;;;;;;18.28;82.92;100971.47;5114314;28;20284;-76
2022/08/14 00:33:03;;;;;;;11.63;8.57;;;;;;;18.28;83.41;100963.34;5095837;28;20444;-75
2022/08/14 00:35:30;;;;;;;9.82;8.85;;;;;;;18.24;82.40;100956.84;5095616;28;20070;-75
2022/08/14 00:37:55;;;;;;;11.88;10.32;;;;;;;18.28;81.38;100957.94;5113288;28;20419;-75
2022/08/14 00:43:44;;;;;;;9.68;8.68;;;;;;;18.38;81.60;100955.28;5114328;28;20131;-76
2022/08/14 00:46:10;;;;;;;11.55;8.80;;;;;;;18.38;80.68;100944.44;5095595;28;20047;-75
2022/08/14 00:48:36;;;;;;;11.65;9.18;;;;;;;18.44;79.87;100950.69;5095045;28;20047;-76
2022/08/14 00:51:04;;;;;;;11.25;9.65;;;;;;;18.48;80.60;100946.38;5113803;28;20483;-76
2022/08/14 00:53:30;;;;;;;10.95;9.52;;;;;;;18.50;79.52;100936.94;5113574;28;20023;-75
2022/08/14 00:59:17;;;;;;;12.15;10.85;;;;;;;18.67;78.10;100935.94;5113983;28;20553;-75
2022/08/14 01:01:44;;;;;;;12.53;9.77;;;;;;;18.61;78.21;100932.34;5112512;28;20055;-76
2022/08/14 01:07:31;;;;;;;12.23;10.40;;;;;;;18.67;78.59;100927.81;5114142;28;20507;-75
2022/08/14 01:10:03;;;;;;;13.30;11.50;;;;;;;18.57;78.22;100912.31;5113678;28;20047;-75
2022/08/14 01:12:31;;;;;;;12.55;11.27;;;;;;;18.52;78.73;100915.81;5094381;28;20109;-75
2022/08/14 01:21:08;;;;;;;13.25;11.48;;;;;;;18.53;77.63;100903.91;5113369;28;20042;-76
2022/08/14 01:23:43;;;;;;;14.95;11.80;;;;;;;18.53;77.45;100911.22;5113315;28;20028;-76
2022/08/14 01:26:10;;;;;;;14.15;11.73;;;;;;;18.53;77.10;100906.63;5112412;28;20039;-76
2022/08/14 01:28:37;;;;;;;15.40;10.80;;;;;;;18.59;77.20;100907.44;5113263;28;20045;-75
2022/08/14 01:31:15;;;;;;;12.77;11.48;;;;;;;18.58;76.57;100897.69;5112393;28;20118;-75
2022/08/14 01:37:03;;;;;;;14.02;12.63;;;;;;;18.67;76.17;100912.38;5113362;28;20130;-75
2022/08/14 01:42:50;;;;;;;13.43;11.75;;;;;;;18.65;75.45;100900.16;5113011;28;20066;-76
2022/08/14 01:48:39;;;;;;;14.68;11.65;;;;;;;18.56;76.66;100911.50;5112871;28;20043;-76
2022/08/14 01:54:25;;;;;;;15.35;11.95;;;;;;;18.42;77.91;100901.41;5113313;28;20046;-76
2022/08/14 02:00:15;;;;;;;13.93;12.30;;;;;;;18.20;79.14;100905.09;5112762;28;20796;-76
2022/08/14 02:06:02;;;;;;;14.20;12.73;;;;;;;17.96;80.24;100893.06;5112550;28;21538;-76
2022/08/14 02:08:29;;;;;;;13.43;11.05;;;;;;;17.85;80.82;100897.59;5094610;28;20399;-77
2022/08/14 02:17:08;;;;;;;15.10;11.52;;;;;;;17.44;83.75;100896.44;5113333;28;20092;-75
2022/08/14 02:19:34;;;;;;;13.68;12.30;;;;;;;17.25;84.05;100873.56;5094045;28;20036;-76
2022/08/14 02:25:22;;;;;;;13.57;12.13;;;;;;;17.21;84.07;100884.09;5112927;28;20039;-75
2022/08/14 02:27:48;;;;;;;12.63;11.43;;;;;;;17.22;84.84;100887.59;5094082;28;20059;-76
2022/08/14 02:30:14;;;;;;;13.70;11.85;;;;;;;17.21;84.60;100891.38;5093552;28;20074;-76
2022/08/14 02:36:02;;;;;;;13.57;12.13;;;;;;;17.12;85.92;100896.44;5112702;28;20101;-75
2022/08/14 02:41:51;;;;;;;15.45;12.32;;;;;;;16.94;86.80;100900.31;5112377;28;20091;-75
2022/08/14 02:47:38;;;;;;;14.65;12.70;;;;;;;16.72;88.85;100888.72;5116220;28;20046;-76
2022/08/14 02:50:04;;;;;;;15.53;12.77;;;;;;;16.76;89.93;100892.53;5096961;28;20076;-76
2022/08/14 02:55:51;;;;;;;16.75;13.52;;;;;;;16.72;90.33;100886.03;5116091;28;20077;-77
2022/08/14 03:01:39;;;;;;;14.02;12.52;;;;;;;16.51;91.11;100884.16;5115781;28;20439;-77
2022/08/14 03:07:26;;;;;;;16.65;11.65;;;;;;;16.49;92.08;100870.09;5116166;28;20070;-76
2022/08/14 03:09:51;;;;;;;20.58;12.90;;;;;;;16.43;92.31;100858.41;5115728;28;20097;-76
2022/08/14 03:12:16;;;;;;;14.57;12.50;;;;;;;16.41;92.68;100861.34;5115123;28;20027;-76
2022/08/14 03:14:47;;;;;;;14.27;12.77;;;;;;;16.46;91.34;100862.47;5115358;28;20266;-76
2022/08/14 03:17:14;;;;;;;13.98;12.55;;;;;;;16.47;91.91;100858.69;5097184;28;20325;-76
2022/08/14 03:19:39;;;;;;;15.50;13.05;;;;;;;16.42;92.61;100857.59;5114637;28;20181;-76
2022/08/14 03:22:04;;;;;;;16.52;12.88;;;;;;;16.34;92.13;100870.72;5115341;28;20507;-76
2022/08/14 03:27:51;;;;;;;16.67;14.18;;;;;;;16.12;93.05;100870.69;5115416;28;20334;-76
2022/08/14 03:33:39;;;;;;;15.02;13.43;;;;;;;16.14;92.71;100859.66;5115686;28;20503;-77
2022/08/14 03:36:13;;;;;;;15.48;13.02;;;;;;;16.10;91.40;100862.03;5115197;28;20027;-76
2022/08/14 03:38:41;;;;;;;17.40;13.90;;;;;;;16.00;92.46;100859.22;5096280;28;20047;-77
2022/08/14 03:41:13;;;;;;;20.08;14.30;;;;;;;16.00;92.22;100856.53;5096775;28;20476;-77
2022/08/14 03:43:39;;;;;;;14.68;12.65;;;;;;;15.99;92.29;100860.28;5114008;28;20066;-76
2022/08/14 03:49:26;;;;;;;16.17;14.07;;;;;;;16.07;93.69;100843.66;5115041;28;20061;-76
2022/08/14 03:51:52;;;;;;;20.47;14.30;;;;;;;15.98;94.31;100842.47;5114948;28;20027;-76
2022/08/14 03:54:17;;;;;;;15.07;12.93;;;;;;;15.94;93.36;100855.63;5115211;28;20273;-77
2022/08/14 03:56:44;;;;;;;15.98;13.13;;;;;;;15.76;94.17;100848.63;5114079;28;20697;-76
2022/08/14 03:59:12;;;;;;;19.38;16.20;;;;;;;15.65;95.96;100854.97;5114786;28;20035;-76
2022/08/14 04:01:38;;;;;;;21.50;17.42;;;;;;;15.64;96.29;100857.91;5095614;28;20452;-76
2022/08/14 04:04:05;;;;;;;17.77;15.07;;;;;;;15.64;96.01;100847.94;5096465;28;20023;-77
2022/08/14 04:06:31;;;;;;;18.70;15.25;;;;;;;15.65;95.68;100856.84;5096433;28;20503;-77
2022/08/14 04:08:56;;;;;;;17.95;14.38;;;;;;;15.61;95.53;100852.97;5095948;28;20040;-77
2022/08/14 04:11:22;;;;;;;19.30;14.87;;;;;;;15.72;94.76;100866.38;5114678;28;20098;-77
2022/08/14 04:13:50;;;;;;;19.17;13.98;;;;;;;15.73;96.76;100854.53;5095647;28;20860;-76
2022/08/14 04:16:19;;;;;;;22.75;14.15;;;;;;;15.63;96.87;100838.22;5114547;28;20028;-77
2022/08/14 04:18:52;;;;;;;21.63;14.90;;;;;;;15.62;97.23;100846.56;5114552;28;20031;-77
2022/08/14 04:21:18;;;;;;;18.77;13.63;;;;;;;15.60;97.74;100851.34;5095562;28;20065;-77
2022/08/14 04:23:46;;;;;;;16.25;14.55;;;;;;;15.60;98.09;100841.38;5096245;28;20112;-77
2022/08/14 04:26:13;;;;;;;16.52;14.00;;;;;;;15.62;98.36;100849.25;5113658;28;20048;-77
2022/08/14 04:28:41;;;;;;;18.42;14.70;;;;;;;15.59;98.54;100847.03;5114491;28;20028;-77
2022/08/14 04:31:07;;;;;;;17.58;15.75;;;;;;;15.56;98.92;100837.53;5095964;28;20043;-77
2022/08/14 04:33:33;;;;;;;19.58;14.93;;;;;;;15.52;98.33;100841.78;5113629;28;20047;-76
2022/08/14 04:35:58;;;;;;;19.17;13.13;;;;;;;15.42;97.32;100837.06;5096136;28;20039;-76
2022/08/14 04:44:29;;;;;;;19.73;15.55;;;;;;;15.62;98.92;100823.09;5113528;28;20061;-76
2022/08/14 04:53:01;;;;;;;16.00;14.05;;;;;;;15.81;96.36;100829.00;5114450;28;20066;-76
2022/08/14 04:58:56;;;;;;;19.50;14.77;;;;;;;16.37;95.36;100816.22;5114212;28;20046;-77
2022/08/14 05:04:43;;;;;;;17.23;14.68;;;;;;;17.19;91.22;100807.88;5114038;28;20034;-76
2022/08/14 05:07:08;;;;;;;18.30;15.50;;;;;;;17.50;91.93;100808.88;5095447;28;20391;-76
2022/08/14 05:09:34;;;;;;;21.77;15.73;;;;;;;17.77;90.24;100799.88;5094379;28;20395;-77
2022/08/14 05:11:59;;;;;;;18.38;14.90;;;;;;;18.08;88.42;100806.25;5113697;28;20321;-76
2022/08/14 05:14:25;;;;;;;18.33;14.70;;;;;;;18.31;86.23;100811.22;5095391;28;20388;-76
2022/08/14 05:20:12;;;;;;;17.58;14.32;;;;;;;19.10;83.40;100802.69;5113849;28;20089;-76
2022/08/14 05:22:37;;;;;;;20.63;14.43;;;;;;;19.52;81.69;100811.59;5112699;28;20381;-76
2022/08/14 05:25:03;;;;;;;18.05;13.88;;;;;;;19.92;79.97;100813.41;5113300;28;20039;-76
2022/08/14 05:27:29;;;;;;;20.73;15.40;;;;;;;20.16;78.05;100805.44;5112536;28;20075;-76
2022/08/14 05:29:54;;;;;;;22.25;16.75;;;;;;;20.27;76.44;100807.84;5113272;28;20062;-77
2022/08/14 05:32:20;;;;;;;21.45;16.30;;;;;;;20.51;75.98;100808.00;5113234;28;20028;-77
2022/08/14 05:34:46;;;;;;;18.65;15.98;;;;;;;20.98;74.47;100806.59;5094413;28;20088;-76
2022/08/14 05:37:12;;;;;;;19.92;16.80;;;;;;;21.42;72.56;100806.53;5094879;28;20102;-77
2022/08/14 05:39:39;;;;;;;21.02;17.85;;;;;;;21.78;71.80;100800.69;5112442;28;20102;-77
2022/08/14 05:45:27;;;;;;;20.70;18.25;;;;;;;22.90;69.18;100813.69;5113328;28;20035;-77
2022/08/14 05:54:47;;;;;;;21.13;17.67;;;;;;;24.49;61.93;100804.94;5113417;28;20172;-76
2022/08/14 05:57:12;;;;;;;22.45;19.23;;;;;;;24.76;59.54;100801.28;5113231;28;20429;-77
2022/08/14 06:03:00;;;;;;;19.83;17.58;;;;;;;25.30;57.27;100802.97;5113272;28;20042;-76
2022/08/14 06:05:27;;;;;;;24.42;19.10;;;;;;;25.57;55.75;100801.19;5112108;28;20411;-77
2022/08/14 06:07:53;;;;;;;22.30;19.42;;;;;;;25.71;54.64;100799.16;5112958;28;20345;-76
2022/08/14 06:10:18;;;;;;;21.92;19.58;;;;;;;26.15;53.67;100806.41;5093870;28;20100;-77
2022/08/14 06:12:44;;;;;;;24.40;18.98;;;;;;;26.36;52.96;100797.59;5112647;28;20039;-77
2022/08/14 06:15:10;;;;;;;23.10;20.40;;;;;;;26.51;51.72;100808.09;5094325;28;20036;-76
2022/08/14 06:17:50;;;;;;;22.45;20.05;;;;;;;26.54;52.75;100804.69;5093849;28;20035;-76
2022/08/14 06:20:16;;;;;;;25.55;20.80;;;;;;;26.96;51.74;100799.53;5111744;28;20063;-76
2022/08/14 06:22:43;;;;;;;22.27;19.70;;;;;;;27.61;49.45;100803.91;5111812;28;20052;-76
2022/08/14 06:25:10;;;;;;;23.98;18.80;;;;;;;27.83;48.34;100805.63;5112699;28;20031;-77
2022/08/14 06:30:57;;;;;;;23.60;20.83;;;;;;;28.18;47.75;100800.72;5112931;28;20042;-78
2022/08/14 06:33:23;;;;;;;22.20;19.80;;;;;;;28.18;47.48;100801.53;5112541;28;20036;-77
2022/08/14 06:35:49;;;;;;;24.77;21.23;;;;;;;28.23;46.51;100795.81;5093562;28;20144;-77
2022/08/14 06:41:38;;;;;;;25.80;21.00;;;;;;;28.48;46.82;100801.50;5112493;28;20070;-79
2022/08/14 06:47:26;;;;;;;25.48;21.88;;;;;;;29.32;44.28;100791.19;5112045;28;20038;-77
2022/08/14 06:53:15;;;;;;;25.50;22.70;;;;;;;29.65;42.39;100782.88;5112593;28;20084;-76
2022/08/14 07:08:30;;;;;;;23.98;19.38;;;;;;;29.89;40.85;100767.13;5112530;28;20042;-75
2022/08/14 07:14:16;;;;;;;21.13;18.73;;;;;;;30.62;39.92;100777.22;5112253;28;20465;-76
2022/08/14 07:20:05;;;;;;;23.30;18.48;;;;;;;31.13;38.84;100767.19;5112163;28;20066;-76
2022/08/14 07:25:54;;;;;;;18.47;16.50;;;;;;;32.58;36.94;100773.81;5112316;28;20074;-77
2022/08/14 07:31:41;;;;;;;18.67;15.95;;;;;;;34.14;32.94;100773.78;5112365;28;20050;-76
2022/08/14 07:37:29;;;;;;;23.80;16.80;;;;;;;34.63;32.24;100770.06;5115641;28;20131;-76
2022/08/14 07:43:16;;;;;;;16.90;15.13;;;;;;;35.07;31.11;100766.59;5115467;28;20082;-76
2022/08/14 07:49:04;;;;;;;18.87;14.30;;;;;;;35.79;30.77;100766.00;5115395;28;20046;-76
2022/08/14 07:54:52;;;;;;;13.40;11.20;;;;;;;36.37;27.46;100767.97;5115409;28;20049;-76
2022/08/14 08:00:40;;;;;;;13.83;10.63;;;;;;;35.67;29.03;100771.91;5114993;28;20116;-76
2022/08/14 08:06:28;;;;;;;13.40;11.40;;;;;;;36.26;27.95;100772.69;5114182;28;20066;-77
2022/08/14 08:12:19;;;;;;;13.95;10.98;;;;;;;37.09;27.22;100780.16;5114980;28;20046;-76
2022/08/14 08:14:44;;;;;;;13.13;11.60;;;;;;;37.12;26.61;100776.56;5114072;28;20024;-77
2022/08/14 08:17:11;;;;;;;13.27;10.88;;;;;;;37.37;26.46;100765.47;5114211;28;20030;-77
2022/08/14 08:19:37;;;;;;;12.88;11.02;;;;;;;37.80;25.36;100778.19;5113536;28;20079;-75
2022/08/14 08:25:28;;;;;;;13.70;10.77;;;;;;;38.21;25.22;100758.19;5114754;28;20400;-74
2022/08/14 08:28:17;;;;;;;12.25;11.05;;;;;;;38.77;25.79;100756.34;5095968;28;20039;-75
2022/08/14 08:30:55;;;;;;;12.52;11.05;;;;;;;38.92;25.04;100754.25;5113492;28;20540;-75
2022/08/14 08:36:42;;;;;;;15.02;11.52;;;;;;;39.02;25.22;100745.75;5114575;28;20104;-75
2022/08/14 08:39:09;;;;;;;15.43;11.82;;;;;;;38.45;25.28;100745.28;5095821;28;20402;-75
2022/08/14 08:44:56;;;;;;;13.50;12.00;;;;;;;39.31;22.66;100757.56;5113297;28;20051;-74
2022/08/14 08:47:21;;;;;;;13.13;11.18;;;;;;;39.16;22.92;100755.28;5095750;28;20037;-75
2022/08/14 08:49:47;;;;;;;13.07;10.93;;;;;;;39.21;23.14;100754.84;5095101;28;20040;-76
2022/08/14 08:52:13;;;;;;;13.48;11.23;;;;;;;39.48;22.87;100752.22;5113895;28;20180;-76
2022/08/14 08:54:38;;;;;;;13.67;11.10;;;;;;;39.28;22.56;100755.56;5113145;28;20532;-75
2022/08/14 08:57:11;;;;;;;11.70;10.45;;;;;;;39.41;22.85;100753.09;5113919;28;20023;-78
2022/08/14 08:59:36;;;;;;;12.75;9.95;;;;;;;39.69;21.90;100742.84;5095531;28;20032;-75
2022/08/14 09:02:08;;;;;;;12.80;9.63;;;;;;;39.69;22.78;100740.84;5112854;28;20059;-76
2022/08/14 09:04:34;;;;;;;;;;;;;;;40.45;22.66;100741.59;5095966;28;20016;-75
2022/08/14 09:06:59;;;;;;;11.32;10.15;;;;;;;40.65;20.86;100739.69;5112516;28;19911;-75
2022/08/14 09:09:29;;;;;;;12.57;9.70;;;;;;;41.17;20.61;100747.75;5113841;28;20031;-74
2022/08/14 09:15:16;;;;;;;15.50;9.55;;;;;;;41.35;20.55;100733.41;5113892;28;20047;-75
2022/08/14 09:21:04;;;;;;;14.65;8.98;;;;;;;40.71;22.48;100729.59;5113490;28;20299;-76
2022/08/14 09:23:30;;;;;;;15.65;11.60;;;;;;;39.78;23.28;100729.94;5113521;28;20023;-77
2022/08/14 09:25:55;;;;;;;14.18;11.02;;;;;;;39.43;23.41;100719.88;5112514;28;20039;-78
2022/08/14 09:31:45;;;;;;;14.88;10.85;;;;;;;38.50;24.27;100714.13;5113494;28;20099;-78
2022/08/14 09:34:21;;;;;;;15.32;10.27;;;;;;;37.94;25.36;100715.16;5094998;28;20028;-77
2022/08/14 09:40:26;;;;;;;12.98;10.70;;;;;;;35.80;28.67;100706.38;5113230;28;20119;-78
2022/08/14 09:46:15;;;;;;;12.50;11.00;;;;;;;34.68;30.55;100688.34;5112950;28;20119;-76
2022/08/14 09:48:40;;;;;;;12.05;10.85;;;;;;;34.26;30.44;100702.53;5112021;28;20495;-76
2022/08/14 09:54:41;;;;;;;12.80;10.87;;;;;;;34.10;30.51;100689.66;5112249;28;20335;-77
2022/08/14 09:57:22;;;;;;;12.73;10.80;;;;;;;33.79;32.01;100682.47;5112490;28;20284;-76
2022/08/14 09:59:48;;;;;;;14.65;11.80;;;;;;;33.35;32.29;100684.19;5093995;28;20060;-76
2022/08/14 10:02:30;;;;;;;11.32;9.95;;;;;;;32.84;34.65;100684.50;5093615;28;20063;-75
2022/08/14 10:05:13;;;;;;;13.02;10.60;;;;;;;32.47;34.82;100665.59;5112526;28;20031;-75
2022/08/14 10:07:50;;;;;;;13.18;10.63;;;;;;;32.32;34.71;100678.38;5093505;28;20540;-75
2022/08/14 10:13:38;;;;;;;15.23;11.00;;;;;;;32.25;35.56;100667.16;5112665;28;20088;-75
2022/08/14 10:16:03;;;;;;;12.77;9.68;;;;;;;32.19;33.98;100656.72;5093993;28;20441;-76
2022/08/14 10:18:30;;;;;;;11.65;10.50;;;;;;;32.02;35.12;100653.22;5111428;28;20461;-76
2022/08/14 10:24:26;;;;;;;13.60;10.70;;;;;;;32.09;35.83;100649.78;5112291;28;20530;-75
2022/08/14 10:30:15;;;;;;;12.83;9.83;;;;;;;32.08;34.17;100656.47;5112512;28;20043;-74
2022/08/14 10:32:45;;;;;;;12.10;10.18;;;;;;;31.96;34.37;100662.97;5093719;28;20394;-74
2022/08/14 10:35:11;;;;;;;11.57;9.40;;;;;;;31.84;35.89;100637.44;5093312;28;20035;-74
2022/08/14 10:37:39;;;;;;;12.27;9.27;;;;;;;31.89;34.39;100635.16;5093552;28;20023;-76
2022/08/14 10:43:26;;;;;;;10.77;9.68;;;;;;;32.21;34.46;100626.72;5112266;28;20066;-76
2022/08/14 10:46:00;;;;;;;14.40;9.77;;;;;;;32.17;34.64;100618.34;5111160;28;20027;-75
2022/08/14 10:48:26;;;;;;;14.55;10.07;;;;;;;31.98;34.82;100621.09;5111754;28;20518;-76
2022/08/14 10:50:52;;;;;;;12.75;9.32;;;;;;;31.85;34.24;100614.94;5111705;28;20045;-75
2022/08/14 10:53:29;;;;;;;12.25;9.55;;;;;;;31.88;34.74;100613.41;5092892;28;20038;-75
2022/08/14 10:56:05;;;;;;;10.02;9.02;;;;;;;31.72;34.84;100619.78;5111814;28;20464;-76
2022/08/14 11:05:25;;;;;;;11.27;8.68;;;;;;;32.13;33.15;100597.31;5111970;28;20445;-76
2022/08/14 11:07:54;;;;;;;12.93;8.57;;;;;;;32.06;32.91;100614.53;5095477;28;20400;-76
2022/08/14 11:10:21;;;;;;;12.25;9.93;;;;;;;32.08;32.98;100600.34;5114232;28;20043;-74
2022/08/14 11:12:49;;;;;;;12.02;8.55;;;;;;;32.10;31.50;100609.09;5115069;28;20031;-77
2022/08/14 11:15:21;;;;;;;10.35;8.80;;;;;;;32.20;33.29;100608.50;5114170;28;20070;-75
2022/08/14 11:21:08;;;;;;;12.43;9.32;;;;;;;32.47;31.86;100599.16;5115206;28;20039;-75
2022/08/14 11:23:37;;;;;;;10.40;8.35;;;;;;;32.80;31.73;100593.03;5114790;28;20027;-76
2022/08/14 11:26:07;;;;;;;10.45;8.43;;;;;;;32.94;31.54;100593.25;5114248;28;20031;-76
2022/08/14 11:31:58;;;;;;;8.77;6.75;;;;;;;32.72;29.67;100598.81;5115150;28;20067;-76
2022/08/14 11:37:52;;;;;;;8.95;7.32;;;;;;;32.53;30.89;100592.16;5114203;28;20042;-74
2022/08/14 11:40:19;;;;;;;8.52;7.63;;;;;;;32.44;31.21;100591.59;5096300;28;20031;-75
2022/08/14 11:42:46;;;;;;;10.05;7.40;;;;;;;32.34;31.10;100604.06;5114664;28;20038;-74
2022/08/14 11:45:12;;;;;;;9.07;7.82;;;;;;;32.51;29.98;100588.16;5095641;28;20035;-75
2022/08/14 11:47:38;;;;;;;11.63;7.60;;;;;;;32.29;30.30;100584.19;5114457;28;20552;-75
2022/08/14 11:53:30;;;;;;;14.75;7.22;;;;;;;32.79;28.06;100563.72;5114967;28;20429;-75
2022/08/14 11:56:04;;;;;;;12.68;8.10;;;;;;;32.94;29.70;100560.00;5113559;28;20067;-74
2022/08/14 11:58:38;;;;;;;10.73;7.85;;;;;;;33.31;29.76;100564.94;5096120;28;20471;-74
2022/08/14 12:01:08;;;;;;;10.18;7.32;;;;;;;33.65;27.47;100562.22;5095210;28;20055;-75
2022/08/14 12:03:42;;;;;;;8.32;6.72;;;;;;;33.82;27.21;100548.53;5114148;28;20368;-76
2022/08/14 12:06:17;;;;;;;10.30;7.55;;;;;;;34.05;27.56;100551.19;5114324;28;20104;-76
2022/08/14 12:08:44;;;;;;;12.27;7.82;;;;;;;35.20;25.71;100534.31;5113444;28;20063;-76
2022/08/14 12:11:12;;;;;;;12.52;7.85;;;;;;;36.54;24.60;100535.19;5114105;28;20023;-76
2022/08/14 12:13:39;;;;;;;8.07;7.20;;;;;;;36.62;24.11;100536.75;5095242;28;20040;-76
2022/08/14 12:16:07;;;;;;;7.88;6.88;;;;;;;35.94;24.49;100536.69;5114142;28;20035;-76
2022/08/14 12:18:38;;;;;;;9.57;7.57;;;;;;;35.39;25.63;100531.28;5093846;28;20074;-76
2022/08/14 12:21:20;;;;;;;11.27;7.53;;;;;;;34.77;26.04;100524.91;5114079;28;20059;-76
2022/08/14 12:23:46;;;;;;;;;;;;;;;34.70;27.12;100525.66;5114581;28;20066;-74
2022/08/14 12:26:16;;;;;;;9.60;7.85;;;;;;;33.77;28.03;100517.56;5113141;28;19919;-75
2022/08/14 12:28:42;;;;;;;12.32;8.02;;;;;;;33.36;28.61;100517.47;5095531;28;20035;-76
2022/08/14 12:31:15;;;;;;;8.95;7.60;;;;;;;33.05;28.95;100515.03;5113018;28;20043;-75
2022/08/14 12:33:41;;;;;;;10.00;7.95;;;;;;;32.95;29.07;100514.50;5113983;28;20489;-76
2022/08/14 12:36:08;;;;;;;12.85;8.25;;;;;;;33.03;29.89;100523.72;5112896;28;20110;-74
2022/08/14 12:38:34;;;;;;;8.70;7.80;;;;;;;33.01;29.72;100514.19;5095428;28;20028;-75
2022/08/14 12:41:01;;;;;;;9.07;8.00;;;;;;;32.92;29.27;100506.94;5113559;28;20043;-76
2022/08/14 12:43:28;;;;;;;13.43;8.70;;;;;;;32.77;29.68;100488.47;5112917;28;20391;-75
2022/08/14 12:45:53;;;;;;;10.70;7.70;;;;;;;32.49;29.09;100491.59;5095348;28;20023;-75
2022/08/14 12:48:20;;;;;;;10.35;8.93;;;;;;;32.34;28.93;100495.28;5112854;28;20050;-74
2022/08/14 12:50:50;;;;;;;10.93;7.95;;;;;;;32.27;29.75;100487.69;5095222;28;20034;-77
2022/08/14 12:53:15;;;;;;;12.73;8.27;;;;;;;32.17;30.59;100474.44;5112672;28;20051;-77
2022/08/14 12:55:42;;;;;;;11.32;8.55;;;;;;;32.24;30.62;100471.78;5095149;28;20027;-76
2022/08/14 12:58:09;;;;;;;12.98;8.07;;;;;;;32.31;29.94;100473.91;5095159;28;20023;-76
2022/08/14 13:00:47;;;;;;;11.60;7.93;;;;;;;32.22;30.54;100473.31;5112517;28;20071;-76
2022/08/14 13:03:28;;;;;;;12.98;8.00;;;;;;;32.61;30.24;100485.06;5113429;28;20084;-74
2022/08/14 13:05:54;;;;;;;12.45;8.07;;;;;;;32.66;29.38;100477.22;5094351;28;20488;-75
2022/08/14 13:08:21;;;;;;;9.07;8.18;;;;;;;32.44;29.82;100480.84;5113251;28;20028;-76
2022/08/14 13:10:47;;;;;;;8.85;8.02;;;;;;;32.06;29.74;100476.19;5094393;28;20480;-75
2022/08/14 13:13:15;;;;;;;9.07;7.57;;;;;;;31.85;29.86;100460.03;5094902;28;20047;-75
2022/08/14 13:15:44;;;;;;;9.57;8.57;;;;;;;31.84;30.66;100471.47;5094747;28;20115;-76
2022/08/14 13:18:12;;;;;;;9.40;7.97;;;;;;;31.83;30.12;100472.63;5112333;28;20039;-75
2022/08/14 13:20:40;;;;;;;10.48;7.88;;;;;;;31.94;29.74;100463.34;5112928;28;20023;-75
2022/08/14 13:23:07;;;;;;;8.57;7.78;;;;;;;32.13;29.14;100459.75;5094085;28;20042;-76
2022/08/14 13:25:34;;;;;;;12.05;8.15;;;;;;;32.16;28.16;100459.00;5112942;28;20027;-75
2022/08/14 13:28:01;;;;;;;9.13;8.23;;;;;;;32.14;28.99;100460.53;5112020;28;20484;-74
2022/08/14 13:30:27;;;;;;;9.32;7.90;;;;;;;31.87;28.99;100462.44;5112611;28;20028;-74
2022/08/14 13:32:55;;;;;;;9.35;8.30;;;;;;;31.57;29.81;100470.53;5094633;28;20038;-75
2022/08/14 13:35:20;;;;;;;9.75;7.40;;;;;;;31.29;30.47;100460.50;5112076;28;20065;-74
2022/08/14 13:37:49;;;;;;;10.80;7.30;;;;;;;31.35;29.36;100453.50;5094515;28;20108;-75
2022/08/14 13:40:17;;;;;;;9.15;7.40;;;;;;;31.55;28.92;100447.97;5093779;28;20185;-76
2022/08/14 13:42:45;;;;;;;12.38;7.10;;;;;;;32.21;29.31;100438.50;5094502;28;20032;-74
2022/08/14 13:45:11;;;;;;;11.27;7.68;;;;;;;32.42;27.81;100435.34;5111630;28;20075;-74
2022/08/14 13:47:37;;;;;;;8.18;7.38;;;;;;;32.38;28.41;100431.69;5112431;28;20065;-75
2022/08/14 13:50:08;;;;;;;8.27;7.47;;;;;;;32.40;29.49;100427.41;5112620;28;20488;-76
2022/08/14 13:52:52;;;;;;;9.13;7.68;;;;;;;32.30;29.60;100425.25;5093787;28;20074;-75
2022/08/14 13:55:23;;;;;;;8.27;7.43;;;;;;;31.98;28.63;100424.69;5112545;28;20042;-76
2022/08/14 13:57:49;;;;;;;8.90;7.38;;;;;;;31.80;29.64;100429.09;5111985;28;20067;-74
2022/08/14 14:00:15;;;;;;;11.65;7.15;;;;;;;31.54;30.42;100424.25;5112290;28;20059;-76
2022/08/14 14:06:03;;;;;;;9.55;7.90;;;;;;;31.51;29.39;100417.47;5112576;28;20538;-76
2022/08/14 14:08:37;;;;;;;9.20;7.85;;;;;;;31.74;29.22;100410.03;5111493;28;20040;-76
2022/08/14 14:11:02;;;;;;;9.20;8.18;;;;;;;32.04;29.64;100403.84;5112323;28;20532;-76
2022/08/14 14:13:30;;;;;;;10.18;7.75;;;;;;;32.10;28.31;100402.38;5093463;28;20031;-76
2022/08/14 14:15:56;;;;;;;8.70;7.35;;;;;;;32.23;27.95;100402.97;5093852;28;20177;-76
2022/08/14 14:18:26;;;;;;;9.02;7.57;;;;;;;32.48;28.32;100398.66;5093955;28;20482;-76
2022/08/14 14:20:53;;;;;;;8.65;7.80;;;;;;;32.71;28.34;100395.00;5093232;28;20035;-75
2022/08/14 14:23:19;;;;;;;9.35;7.97;;;;;;;32.79;29.39;100394.75;5093860;28;20057;-75
2022/08/14 14:25:45;;;;;;;11.13;8.57;;;;;;;32.83;29.17;100400.34;5093368;28;20491;-75
2022/08/14 14:28:16;;;;;;;11.93;8.15;;;;;;;32.79;28.45;100399.50;5112372;28;20030;-75
2022/08/14 14:30:46;;;;;;;9.32;7.85;;;;;;;32.77;28.52;100399.84;5111705;28;20476;-76
2022/08/14 14:33:13;;;;;;;8.65;7.80;;;;;;;32.80;27.87;100398.31;5111794;28;20046;-75
2022/08/14 14:35:43;;;;;;;9.52;8.30;;;;;;;32.52;29.20;100398.69;5111949;28;20035;-75
2022/08/14 14:38:15;;;;;;;8.88;7.97;;;;;;;32.45;27.47;100387.53;5093217;28;20035;-74
2022/08/14 14:40:45;;;;;;;8.20;7.32;;;;;;;32.35;28.43;100388.94;5111985;28;20051;-74
2022/08/14 14:43:12;;;;;;;9.30;8.20;;;;;;;32.31;28.80;100388.88;5113813;28;20039;-76
2022/08/14 14:45:38;;;;;;;9.45;8.25;;;;;;;32.45;28.77;100382.78;5097301;28;20022;-77
2022/08/14 14:48:06;;;;;;;8.73;7.80;;;;;;;32.65;29.31;100387.00;5096572;28;20039;-76
2022/08/14 14:50:32;;;;;;;8.55;7.65;;;;;;;32.71;28.96;100378.41;5115188;28;20024;-76
2022/08/14 14:52:58;;;;;;;11.30;7.97;;;;;;;32.72;28.55;100375.25;5115489;28;20035;-75
2022/08/14 14:55:24;;;;;;;10.40;7.50;;;;;;;32.79;30.32;100385.66;5096581;28;20453;-77
2022/08/14 15:01:14;;;;;;;9.10;8.20;;;;;;;32.60;28.89;100372.69;5115290;28;20564;-74
2022/08/14 15:03:44;;;;;;;9.10;7.75;;;;;;;32.62;28.39;100375.88;5115196;28;20024;-75
2022/08/14 15:06:10;;;;;;;12.63;8.20;;;;;;;32.57;28.92;100359.59;5096342;28;20044;-75
2022/08/14 15:08:37;;;;;;;10.23;7.45;;;;;;;32.65;28.68;100366.81;5115186;28;20023;-76
2022/08/14 15:11:02;;;;;;;12.98;8.25;;;;;;;32.67;28.70;100356.16;5114811;28;20032;-75
2022/08/14 15:13:27;;;;;;;9.87;8.20;;;;;;;32.63;27.84;100363.63;5096836;28;20080;-76
2022/08/14 15:15:54;;;;;;;8.73;7.83;;;;;;;32.59;29.39;100366.34;5096761;28;20273;-75
2022/08/14 15:18:20;;;;;;;9.70;7.93;;;;;;;32.53;27.80;100354.00;5114283;28;20304;-74
2022/08/14 15:20:47;;;;;;;10.73;8.38;;;;;;;32.39;28.06;100353.03;5114893;28;20547;-75
2022/08/14 15:23:12;;;;;;;9.98;8.18;;;;;;;32.20;28.89;100349.16;5096029;28;20554;-76
2022/08/14 15:25:38;;;;;;;8.73;7.70;;;;;;;32.06;29.43;100348.94;5115255;28;20031;-75
2022/08/14 15:28:07;;;;;;;10.40;8.32;;;;;;;32.06;28.79;100348.94;5114805;28;20537;-75
2022/08/14 15:30:33;;;;;;;14.63;8.40;;;;;;;31.93;28.49;100355.84;5114072;28;20499;-75
2022/08/14 15:32:58;;;;;;;9.47;8.43;;;;;;;31.86;29.06;100347.44;5096564;28;20084;-76
2022/08/14 15:35:24;;;;;;;9.90;7.43;;;;;;;31.61;29.07;100345.00;5095987;28;20043;-75